Flight Track Log - Related Links

Times and Time Zones

All times are in EST time to prevent confusion due to time zone crossing. See the UCA3598 flight status page for this flight to view local times or setup timezone preferences in your user account.

Time Position Orientation Groundspeed Altitude Reporting Facility
EST Latitude Longitude Course Direction KTS MPH feet Rate Location/Type
Sun 10:24:20 PM 38.9833 -77.5167 North 197 227 2,400  Level Potomac TRACON
Sun 10:25:20 PM 39.0500 -77.5167 360° North 245 282 3,200 900 Climbing Potomac TRACON
Sun 10:26:20 PM 39.1167 -77.5000 11° North 257 296 4,200 1,360 Climbing Potomac TRACON
Sun 10:28:12 PM 39.2381 -77.4969 North 250 288 7,100 1,649 Climbing Washington Center
Sun 10:29:00 PM 39.3508 -77.2849 North  Level Estimated
Sun 10:29:11 PM 39.3008 -77.4906 North 237 273 8,900  Level Washington Center
Sun 10:30:13 PM 39.3611 -77.4867 North 224 258 10,400 1,033 Climbing Washington Center
Sun 10:31:13 PM 39.4239 -77.4775 North 219 252 11,000 966 Climbing Washington Center
Sun 10:32:11 PM 39.4928 -77.4714 North 231 266 12,300 1,268 Climbing Washington Center
Sun 10:34:27 PM 39.6386 -77.4517 North 236 272 15,100 1,194 Climbing New York Center
Sun 10:35:27 PM 39.7114 -77.4533 359° North 241 277 16,200 950 Climbing New York Center
Sun 10:36:27 PM 39.7731 -77.4322 15° North 241 277 17,000 850 Climbing New York Center
Sun 10:37:27 PM 39.8506 -77.3933 21° North 254 292 17,900 1,000 Climbing New York Center
Sun 10:38:27 PM 39.9128 -77.3614 21° North 259 298 19,000 550 Climbing New York Center
Sun 10:39:27 PM 39.9900 -77.3228 21° North 265 305 19,000  Level New York Center
Sun 10:40:27 PM 40.0650 -77.2836 22° Northeast 271 312 19,000  Level New York Center
Sun 10:41:27 PM 40.1403 -77.2444 22° Northeast 284 327 19,000  Level New York Center
Sun 10:42:27 PM 40.2156 -77.2025 23° Northeast 284 327 19,000  Level New York Center
Sun 10:43:27 PM 40.2925 -77.1633 21° North 284 327 19,000  Level New York Center
Sun 10:44:27 PM 40.3678 -77.1239 22° Northeast 284 327 19,000  Level New York Center
Sun 10:45:27 PM 40.4364 -77.0867 22° Northeast 284 327 19,000  Level New York Center
Sun 10:46:27 PM 40.5222 -77.0400 22° Northeast 291 335 19,000 -250 Level New York Center
Sun 10:47:27 PM 40.5953 -77.0000 23° Northeast 305 351 18,500 -800 Descending New York Center
Sun 10:48:27 PM 40.6894 -76.9511 21° North 329 379 17,400 -900 Descending New York Center
Sun 10:49:27 PM 40.7689 -76.9061 23° Northeast 329 379 16,700 -800 Descending New York Center
Sun 10:50:27 PM 40.8656 -76.8544 22° Northeast 335 386 15,800 -850 Descending New York Center
Sun 10:51:27 PM 40.9511 -76.8072 23° Northeast 335 386 15,000 -800 Descending New York Center
Sun 10:52:27 PM 41.0325 -76.7650 21° North 330 380 14,200 -800 Descending New York Center
Sun 10:53:27 PM 41.1161 -76.7200 22° Northeast 317 365 13,400 -550 Descending New York Center
Sun 10:54:27 PM 41.1975 -76.6747 23° Northeast 317 365 13,100 -200 Descending New York Center
Sun 10:55:27 PM 41.2725 -76.6317 23° Northeast 306 352 13,000 -50 Descending New York Center
Sun 10:56:27 PM 41.3519 -76.5858 23° Northeast 301 346 13,000  Level New York Center
Sun 10:57:27 PM 41.4247 -76.5453 23° Northeast 306 352 13,000  Level New York Center
Sun 10:58:27 PM 41.5058 -76.5022 22° Northeast 306 352 13,000 -50 Level New York Center
Sun 10:59:27 PM 41.5936 -76.4544 22° Northeast 306 352 12,900 -50 Descending New York Center
Sun 11:00:27 PM 41.6772 -76.4086 22° Northeast 312 359 12,900 -300 Level New York Center
Sun 11:01:27 PM 41.7583 -76.3628 23° Northeast 312 359 12,300 -1,050 Descending New York Center
Sun 11:02:27 PM 41.8347 -76.3331 16° North 317 365 10,800 -1,700 Descending New York Center
Sun 11:03:27 PM 41.9153 -76.3006 17° North 312 359 8,900 -2,100 Descending New York Center
Sun 11:04:27 PM 42.0103 -76.2722 12° North 306 352 6,600 -1,900 Descending New York Center
Sun 11:05:27 PM 42.0925 -76.2511 11° North 312 359 5,100 -1,400 Descending New York Center
Sun 11:06:27 PM 42.1786 -76.2358 North 317 365 3,800 -900 Descending New York Center
Sun 11:07:27 PM 42.2456 -76.2303 North 282 325 3,300 -250 Descending New York Center
Sun 11:08:27 PM 42.3089 -76.2075 15° North 252 290 3,300  Level New York Center
Sun 11:09:27 PM 42.3428 -76.1514 51° Northeast 221 254 3,300 -50 Level New York Center
Sun 11:10:27 PM 42.3308 -76.0944 106° East 156 180 3,200  Descending New York Center
Sun 11:11:27 PM 42.2989 -76.0608 142° Southeast 110 127 3,300 -100 Climbing New York Center
Sun 11:12:27 PM 42.2728 -76.0392 148° Southeast 110 127 3,000 -400 Descending New York Center
Sun 11:13:27 PM 42.2489 -76.0178 146° Southeast 110 127 2,500 -450 Descending New York Center
Sun 11:14:27 PM 42.2228 -75.9933 145° Southeast 104 120 2,100 -400 Descending New York Center
Sun 11:16:00 PM 42.2084 -75.9796 North  Level Estimated
Sun 11:23:00 PM 42.2084 -75.9796 North  Level Estimated
Sun 11:24:00 PM 42.2084 -75.9796 North  Level Estimated

Login

Don't have an account? Register now (free) for customized features, flight alerts, and more!